createdAt,value
2023-05-19T00:00:19.545Z,98305.50
2023-05-19T00:03:09.525Z,98300.47
2023-05-19T00:05:59.800Z,98299.88
2023-05-19T00:08:50.619Z,98298.25
2023-05-19T00:11:41.660Z,98287.66
2023-05-19T00:14:31.169Z,98290.69
2023-05-19T00:17:20.803Z,98286.50
2023-05-19T00:20:12.609Z,98288.09
2023-05-19T00:23:01.306Z,98295.66
2023-05-19T00:25:50.267Z,98285.22
2023-05-19T00:28:40.442Z,98286.53
2023-05-19T00:31:29.671Z,98283.28
2023-05-19T00:34:18.467Z,98285.22
2023-05-19T00:37:07.230Z,98289.03
2023-05-19T00:39:56.262Z,98285.16
2023-05-19T00:42:45.026Z,98287.25
2023-05-19T00:45:35.284Z,98286.13
2023-05-19T00:48:24.377Z,98282.97
2023-05-19T00:51:16.654Z,98280.72
2023-05-19T00:54:06.015Z,98284.13
2023-05-19T00:56:55.673Z,98270.91
2023-05-19T00:59:44.566Z,98269.53
2023-05-19T01:02:34.865Z,98272.88
2023-05-19T01:05:24.317Z,98266.97
2023-05-19T01:08:13.312Z,98273.16
2023-05-19T01:11:05.013Z,98272.16
2023-05-19T01:13:53.965Z,98279.69
2023-05-19T01:16:50.290Z,98269.28
2023-05-19T01:20:06.591Z,98276.81
2023-05-19T01:23:36.691Z,98270.03
2023-05-19T01:26:58.024Z,98265.56
2023-05-19T01:30:17.754Z,98274.94
2023-05-19T01:33:11.059Z,98268.88
2023-05-19T01:36:06.106Z,98270.88
2023-05-19T01:39:00.275Z,98274.56
2023-05-19T01:41:50.199Z,98267.59
2023-05-19T01:44:39.838Z,98264.00
2023-05-19T01:47:30.039Z,98264.16
2023-05-19T01:50:18.974Z,98266.16
2023-05-19T01:53:07.946Z,98254.44
2023-05-19T01:55:58.252Z,98251.25
2023-05-19T01:58:52.975Z,98252.84
2023-05-19T02:01:52.562Z,98250.63
2023-05-19T02:04:52.222Z,98250.31
2023-05-19T02:07:49.663Z,98243.63
2023-05-19T02:10:43.537Z,98245.84
2023-05-19T02:13:38.662Z,98237.81
2023-05-19T02:16:30.418Z,98246.03
2023-05-19T02:19:25.755Z,98233.53
2023-05-19T02:22:18.048Z,98241.09
2023-05-19T02:25:08.107Z,98230.03
2023-05-19T02:27:56.915Z,98234.16
2023-05-19T02:30:45.763Z,98234.44
2023-05-19T02:33:34.560Z,98239.75
2023-05-19T02:36:26.561Z,98239.91
2023-05-19T02:39:16.955Z,98234.50
2023-05-19T02:42:06.531Z,98233.97
2023-05-19T02:44:56.266Z,98239.47
2023-05-19T02:47:45.137Z,98232.69
2023-05-19T02:50:34.088Z,98234.44
2023-05-19T02:53:22.955Z,98228.06
2023-05-19T02:56:13.074Z,98230.59
2023-05-19T02:59:01.928Z,98228.41
2023-05-19T03:01:51.313Z,98222.03
2023-05-19T03:04:41.804Z,98222.94
2023-05-19T03:07:30.808Z,98224.13
2023-05-19T03:10:19.801Z,98224.19
2023-05-19T03:13:09.927Z,98212.19
2023-05-19T03:15:59.666Z,98217.31
2023-05-19T03:18:48.653Z,98213.50
2023-05-19T03:21:37.522Z,98222.91
2023-05-19T03:24:26.298Z,98217.81
2023-05-19T03:27:16.510Z,98219.78
2023-05-19T03:30:08.300Z,98232.09
2023-05-19T03:33:05.828Z,98237.88
2023-05-19T03:35:54.638Z,98239.66
2023-05-19T03:38:43.404Z,98242.34
2023-05-19T03:41:32.268Z,98235.78
2023-05-19T03:44:21.483Z,98237.25
2023-05-19T03:47:11.735Z,98235.78
2023-05-19T03:50:24.181Z,98243.69
2023-05-19T03:53:16.450Z,98245.69
2023-05-19T03:56:07.535Z,98249.22
2023-05-19T03:58:56.445Z,98246.34
2023-05-19T04:01:46.419Z,98249.06
2023-05-19T04:04:37.355Z,98245.56
2023-05-19T04:07:26.448Z,98246.06
2023-05-19T04:10:15.482Z,98246.56
2023-05-19T04:13:04.365Z,98248.97
2023-05-19T04:15:53.640Z,98240.31
2023-05-19T04:18:45.538Z,98245.28
2023-05-19T04:21:36.904Z,98238.41
2023-05-19T04:24:26.165Z,98243.50
2023-05-19T04:27:16.386Z,98250.88
2023-05-19T04:30:05.855Z,98244.31
2023-05-19T04:32:55.082Z,98246.91
2023-05-19T04:35:44.417Z,98241.75
2023-05-19T04:38:36.769Z,98243.84
2023-05-19T04:41:25.561Z,98246.25
2023-05-19T04:44:18.258Z,98244.28
2023-05-19T04:47:10.284Z,98233.75
2023-05-19T04:50:00.812Z,98231.03
2023-05-19T04:52:49.900Z,98235.81
2023-05-19T04:55:40.655Z,98245.09
2023-05-19T04:58:30.152Z,98249.28
2023-05-19T05:01:21.424Z,98241.91
2023-05-19T05:04:10.673Z,98236.16
2023-05-19T05:06:59.650Z,98243.03
2023-05-19T05:09:49.130Z,98237.72
2023-05-19T05:12:40.386Z,98230.81
2023-05-19T05:15:30.092Z,98233.56
2023-05-19T05:18:22.233Z,98232.59
2023-05-19T05:21:12.906Z,98234.34
2023-05-19T05:24:03.449Z,98229.88
2023-05-19T05:26:55.411Z,98222.16
2023-05-19T05:29:45.569Z,98228.94
2023-05-19T05:32:35.010Z,98226.81
2023-05-19T05:35:25.899Z,98230.53
2023-05-19T05:38:15.504Z,98225.53
2023-05-19T05:41:04.729Z,98225.38
2023-05-19T05:43:54.908Z,98230.19
2023-05-19T05:46:46.436Z,98224.75
2023-05-19T05:49:38.082Z,98219.94
2023-05-19T05:52:32.025Z,98211.81
2023-05-19T05:55:23.189Z,98218.13
2023-05-19T05:58:11.994Z,98218.78
2023-05-19T06:01:02.894Z,98226.00
2023-05-19T06:03:53.633Z,98225.16
2023-05-19T06:06:45.354Z,98220.31
2023-05-19T06:09:37.742Z,98220.09
2023-05-19T06:12:28.960Z,98216.41
2023-05-19T06:15:17.810Z,98212.31
2023-05-19T06:18:13.191Z,98209.94
2023-05-19T06:21:04.157Z,98208.63
2023-05-19T06:23:53.315Z,98204.34
2023-05-19T06:26:42.374Z,98206.72
2023-05-19T06:29:31.388Z,98206.78
2023-05-19T06:32:24.055Z,98213.16
2023-05-19T06:35:13.199Z,98202.41
2023-05-19T06:38:03.350Z,98206.78
2023-05-19T06:40:52.130Z,98202.72
2023-05-19T06:43:40.986Z,98214.56
2023-05-19T06:46:30.701Z,98207.97
2023-05-19T06:49:19.799Z,98214.66
2023-05-19T06:52:10.216Z,98214.06
2023-05-19T06:55:00.587Z,98217.84
2023-05-19T06:57:53.634Z,98207.38
2023-05-19T07:00:43.272Z,98209.91
2023-05-19T07:03:34.351Z,98203.56
2023-05-19T07:06:23.577Z,98206.00
2023-05-19T07:09:14.163Z,98198.09
2023-05-19T07:12:05.827Z,98195.03
2023-05-19T07:14:56.833Z,98195.84
2023-05-19T07:17:46.282Z,98192.66
2023-05-19T07:20:35.511Z,98202.00
2023-05-19T07:23:24.402Z,98195.19
2023-05-19T07:26:13.242Z,98196.84
2023-05-19T07:29:03.583Z,98200.53
2023-05-19T07:31:54.259Z,98193.38
2023-05-19T07:34:43.411Z,98192.06
2023-05-19T07:37:32.332Z,98183.50
2023-05-19T07:40:21.158Z,98186.31
2023-05-19T07:43:11.356Z,98182.81
2023-05-19T07:46:01.616Z,98193.69
2023-05-19T07:48:51.747Z,98191.25
2023-05-19T07:51:41.803Z,98187.25
2023-05-19T07:54:30.660Z,98179.59
2023-05-19T07:57:19.994Z,98173.41
2023-05-19T08:00:12.058Z,98174.81
2023-05-19T08:03:03.155Z,98169.53
2023-05-19T08:05:54.079Z,98164.06
2023-05-19T08:08:43.221Z,98161.34
2023-05-19T08:11:32.077Z,98165.13
2023-05-19T08:14:22.869Z,98163.84
2023-05-19T08:17:11.712Z,98159.09
2023-05-19T08:20:01.961Z,98163.75
2023-05-19T08:22:51.145Z,98158.34
2023-05-19T08:25:40.680Z,98158.41
2023-05-19T08:28:29.574Z,98156.72
2023-05-19T08:31:18.889Z,98158.41
2023-05-19T08:34:09.021Z,98156.84
2023-05-19T08:36:59.759Z,98152.88
2023-05-19T08:39:48.530Z,98154.53
2023-05-19T08:42:37.398Z,98149.13
2023-05-19T08:45:26.342Z,98141.50
2023-05-19T08:48:18.176Z,98143.28
2023-05-19T08:51:18.320Z,98141.34
2023-05-19T08:54:17.999Z,98142.25
2023-05-19T08:57:09.974Z,98131.28
2023-05-19T09:00:00.528Z,98128.91
2023-05-19T09:03:00.777Z,98126.81
2023-05-19T09:05:55.143Z,98122.03
2023-05-19T09:08:45.281Z,98116.31
2023-05-19T09:11:37.519Z,98117.28
2023-05-19T09:14:26.644Z,98121.69
2023-05-19T09:17:15.827Z,98114.28
2023-05-19T09:20:10.796Z,98112.25
2023-05-19T09:23:01.424Z,98119.91
2023-05-19T09:25:52.734Z,98119.56
2023-05-19T09:28:43.049Z,98115.34
2023-05-19T09:31:34.317Z,98113.88
2023-05-19T09:34:25.009Z,98116.03
2023-05-19T09:37:14.654Z,98113.84
2023-05-19T09:40:05.615Z,98106.69
2023-05-19T09:42:55.602Z,98104.47
2023-05-19T09:45:45.872Z,98101.06
2023-05-19T09:48:35.557Z,98104.19
2023-05-19T09:51:25.077Z,98095.25
2023-05-19T09:54:17.251Z,98093.03
2023-05-19T09:57:08.509Z,98088.06
2023-05-19T09:59:59.662Z,98080.03
2023-05-19T10:02:51.163Z,98076.06
2023-05-19T10:05:41.676Z,98082.34
2023-05-19T10:08:31.918Z,98083.63
2023-05-19T10:11:23.390Z,98084.16
2023-05-19T10:14:12.538Z,98087.59
2023-05-19T10:17:01.411Z,98077.53
2023-05-19T10:19:54.740Z,98073.19
2023-05-19T10:22:48.556Z,98077.72
2023-05-19T10:25:39.694Z,98074.69
2023-05-19T10:28:38.045Z,98071.34
2023-05-19T10:31:28.033Z,98070.88
2023-05-19T10:35:01.526Z,98072.69
2023-05-19T10:38:06.734Z,98061.72
2023-05-19T10:41:08.647Z,98057.47
2023-05-19T10:44:10.289Z,98045.03
2023-05-19T10:46:59.301Z,98036.84
2023-05-19T10:49:48.659Z,98037.03
2023-05-19T10:52:39.769Z,98029.66
2023-05-19T10:55:56.616Z,98040.72
2023-05-19T10:58:52.122Z,98044.66
2023-05-19T11:01:41.686Z,98043.94
2023-05-19T11:04:49.573Z,98041.69
2023-05-19T11:07:44.366Z,98036.66
2023-05-19T11:10:33.809Z,98036.31
2023-05-19T11:13:28.578Z,98044.34
2023-05-19T11:16:22.434Z,98036.41
2023-05-19T11:19:22.680Z,98032.72
2023-05-19T11:22:13.566Z,98035.94
2023-05-19T11:25:02.479Z,98026.56
2023-05-19T11:27:52.838Z,98026.22
2023-05-19T11:30:46.447Z,98018.06
2023-05-19T11:33:35.803Z,98020.72
2023-05-19T11:36:26.039Z,98022.69
2023-05-19T11:39:16.106Z,98031.31
2023-05-19T11:42:05.250Z,98027.28
2023-05-19T11:44:57.431Z,98021.66
2023-05-19T11:48:01.193Z,98018.34
2023-05-19T11:50:52.477Z,98019.16
2023-05-19T11:53:41.891Z,98010.47
2023-05-19T11:56:36.785Z,98011.25
2023-05-19T11:59:34.928Z,98014.09
2023-05-19T12:02:27.474Z,98010.25
2023-05-19T12:05:22.701Z,98019.78
2023-05-19T12:08:12.212Z,98022.09
2023-05-19T12:11:01.411Z,98016.09
2023-05-19T12:13:54.665Z,98021.84
2023-05-19T12:16:43.844Z,98015.56
2023-05-19T12:19:33.147Z,98007.56
2023-05-19T12:22:23.567Z,98006.56
2023-05-19T12:25:12.673Z,98019.16
2023-05-19T12:28:03.573Z,98005.66
2023-05-19T12:30:54.513Z,98009.78
2023-05-19T12:33:43.475Z,98000.75
2023-05-19T12:36:33.782Z,97993.81
2023-05-19T12:39:25.514Z,97989.91
2023-05-19T12:42:14.738Z,97988.06
2023-05-19T12:45:05.847Z,97977.19
2023-05-19T12:47:56.176Z,97984.88
2023-05-19T12:50:46.154Z,97981.13
2023-05-19T12:53:35.262Z,97983.91
2023-05-19T12:56:28.101Z,97975.25
2023-05-19T12:59:37.217Z,97979.94
2023-05-19T13:02:27.179Z,97979.13
2023-05-19T13:05:16.052Z,97979.72
2023-05-19T13:08:08.682Z,97984.63
2023-05-19T13:10:57.728Z,97976.19
2023-05-19T13:13:48.040Z,97964.53
2023-05-19T13:16:36.965Z,97961.47
2023-05-19T13:19:26.266Z,97973.19
2023-05-19T13:22:15.236Z,97969.69
2023-05-19T13:25:04.179Z,97961.59
2023-05-19T13:27:53.313Z,97961.75
2023-05-19T13:30:46.128Z,97958.88
2023-05-19T13:33:34.942Z,97962.66
2023-05-19T13:36:23.808Z,97961.75
2023-05-19T13:39:12.733Z,97951.75
2023-05-19T13:42:01.558Z,97951.06
2023-05-19T13:44:50.465Z,97951.00
2023-05-19T13:47:41.039Z,97956.16
2023-05-19T13:50:29.935Z,97962.19
2023-05-19T13:53:18.665Z,97955.84
2023-05-19T13:56:08.854Z,97955.00
2023-05-19T13:58:57.849Z,97946.84
2023-05-19T14:01:46.784Z,97946.41
2023-05-19T14:04:40.018Z,97948.66
2023-05-19T14:07:30.896Z,97953.88
2023-05-19T14:10:19.763Z,97945.94
2023-05-19T14:16:02.824Z,97955.53
2023-05-19T14:18:51.873Z,97950.84
2023-05-19T14:21:42.219Z,97944.88
2023-05-19T14:24:33.944Z,97948.16
2023-05-19T14:27:22.811Z,97946.31
2023-05-19T14:30:12.676Z,97939.59
2023-05-19T14:33:01.665Z,97932.41
2023-05-19T14:35:50.746Z,97941.84
2023-05-19T14:38:41.155Z,97940.28
2023-05-19T14:41:30.003Z,97929.53
2023-05-19T14:44:18.900Z,97927.38
2023-05-19T14:47:08.435Z,97930.16
2023-05-19T14:49:57.639Z,97930.44
2023-05-19T14:52:46.492Z,97937.03
2023-05-19T14:55:36.752Z,97939.91
2023-05-19T14:58:28.357Z,97940.88
2023-05-19T15:01:18.160Z,97933.00
2023-05-19T15:04:07.077Z,97941.50
2023-05-19T15:07:09.783Z,97939.91
2023-05-19T15:09:59.825Z,97942.56
2023-05-19T15:12:50.152Z,97941.94
2023-05-19T15:15:38.962Z,97941.56
2023-05-19T15:18:27.825Z,97944.81
2023-05-19T15:21:16.598Z,97948.16
2023-05-19T15:24:05.834Z,97940.47
2023-05-19T15:26:55.409Z,97937.44
2023-05-19T15:29:45.611Z,97946.84
2023-05-19T15:32:34.730Z,97942.50
2023-05-19T15:35:23.771Z,97939.19
2023-05-19T15:38:13.424Z,97941.44
2023-05-19T15:41:09.373Z,97940.09
2023-05-19T15:44:00.231Z,97944.09
2023-05-19T15:46:50.853Z,97934.84
2023-05-19T15:49:40.027Z,97945.88
2023-05-19T15:52:29.324Z,97949.13
2023-05-19T15:55:18.390Z,97940.28
2023-05-19T15:58:08.616Z,97935.50
2023-05-19T16:00:57.835Z,97930.03
2023-05-19T16:03:48.308Z,97936.06
2023-05-19T16:06:41.045Z,97935.38
2023-05-19T16:09:29.925Z,97931.13
2023-05-19T16:12:23.374Z,97920.09
2023-05-19T16:15:12.456Z,97931.69
2023-05-19T16:18:01.339Z,97927.41
2023-05-19T16:20:52.176Z,97923.81
2023-05-19T16:23:41.101Z,97933.44
2023-05-19T16:26:30.182Z,97919.44
2023-05-19T16:29:19.060Z,97915.44
2023-05-19T16:32:12.382Z,97915.13
2023-05-19T16:35:01.485Z,97913.78
2023-05-19T16:37:51.718Z,97909.28
2023-05-19T16:40:41.080Z,97911.28
2023-05-19T16:43:29.834Z,97916.72
2023-05-19T16:46:18.556Z,97918.31
2023-05-19T16:49:07.543Z,97917.31
2023-05-19T16:51:56.707Z,97916.94
2023-05-19T16:54:46.962Z,97917.06
2023-05-19T16:57:35.793Z,97911.91
2023-05-19T17:00:24.725Z,97918.06
2023-05-19T17:03:13.586Z,97905.06
2023-05-19T17:06:02.574Z,97903.09
2023-05-19T17:08:51.360Z,97899.25
2023-05-19T17:11:42.815Z,97896.03
2023-05-19T17:14:32.900Z,97900.91
2023-05-19T17:17:21.730Z,97895.72
2023-05-19T17:20:12.016Z,97907.84
2023-05-19T17:23:00.801Z,97906.94
2023-05-19T17:25:54.580Z,97901.06
2023-05-19T17:28:47.192Z,97903.56
2023-05-19T17:31:36.296Z,97917.19
2023-05-19T17:34:25.062Z,97916.81
2023-05-19T17:37:17.529Z,97916.84
2023-05-19T17:40:08.271Z,97920.91
2023-05-19T17:42:57.017Z,97920.47
2023-05-19T17:45:48.299Z,97916.56
2023-05-19T17:48:37.219Z,97925.59
2023-05-19T17:51:27.829Z,97923.28
2023-05-19T17:54:17.404Z,97933.16
2023-05-19T17:57:12.939Z,97927.06
2023-05-19T18:00:03.452Z,97922.88
2023-05-19T18:02:56.962Z,97924.03
2023-05-19T18:05:45.897Z,97916.38
2023-05-19T18:08:35.862Z,97911.78
2023-05-19T18:11:26.417Z,97915.16
2023-05-19T18:14:15.187Z,97924.25
2023-05-19T18:17:04.053Z,97912.38
2023-05-19T18:19:54.564Z,97915.53
2023-05-19T18:22:43.412Z,97919.53
2023-05-19T18:25:32.400Z,97920.84
2023-05-19T18:28:21.320Z,97929.13
2023-05-19T18:31:16.922Z,97919.22
2023-05-19T18:34:05.738Z,97925.34
2023-05-19T18:36:56.885Z,97922.53
2023-05-19T18:39:45.794Z,97913.31
2023-05-19T18:42:34.637Z,97915.63
2023-05-19T18:45:23.349Z,97918.97
2023-05-19T18:48:12.175Z,97913.41
2023-05-19T18:51:01.266Z,97908.72
2023-05-19T18:53:51.963Z,97911.94
2023-05-19T18:56:42.746Z,97920.09
2023-05-19T18:59:31.727Z,97926.00
2023-05-19T19:02:20.467Z,97925.22
2023-05-19T19:05:10.139Z,97929.69
2023-05-19T19:07:59.049Z,97927.25
2023-05-19T19:10:50.428Z,97928.75
2023-05-19T19:13:39.546Z,97930.78
2023-05-19T19:16:28.427Z,97923.44
2023-05-19T19:19:17.311Z,97936.44
2023-05-19T19:22:06.347Z,97942.69
2023-05-19T19:24:55.135Z,97935.53
2023-05-19T19:27:45.268Z,97936.59
2023-05-19T19:30:34.254Z,97935.75
2023-05-19T19:33:23.192Z,97935.88
2023-05-19T19:36:12.285Z,97942.16
2023-05-19T19:39:01.108Z,97940.53
2023-05-19T19:41:51.299Z,97932.63
2023-05-19T19:44:41.444Z,97936.84
2023-05-19T19:47:30.538Z,97940.53
2023-05-19T19:50:19.716Z,97938.25
2023-05-19T19:53:08.949Z,97937.56
2023-05-19T19:55:59.545Z,97941.44
2023-05-19T19:58:48.295Z,97941.66
2023-05-19T20:01:38.450Z,97941.47
2023-05-19T20:04:28.380Z,97946.13
2023-05-19T20:07:19.497Z,97940.19
2023-05-19T20:10:09.391Z,97947.97
2023-05-19T20:12:58.835Z,97942.31
2023-05-19T20:15:48.602Z,97942.69
2023-05-19T20:18:39.569Z,97941.63
2023-05-19T20:21:28.478Z,97940.66
2023-05-19T20:24:17.224Z,97940.38
2023-05-19T20:27:07.357Z,97942.16
2023-05-19T20:29:56.671Z,97946.75
2023-05-19T20:32:46.514Z,97935.53
2023-05-19T20:35:36.744Z,97951.63
2023-05-19T20:38:25.611Z,97940.56
2023-05-19T20:41:14.556Z,97944.09
2023-05-19T20:44:03.394Z,97944.19
2023-05-19T20:46:52.189Z,97941.09
2023-05-19T20:49:41.000Z,97939.75
2023-05-19T20:52:32.216Z,97944.72
2023-05-19T20:55:21.202Z,97936.13
2023-05-19T20:58:09.959Z,97949.31
2023-05-19T21:00:58.950Z,97941.69
2023-05-19T21:03:47.819Z,97936.03
2023-05-19T21:06:36.630Z,97934.19
2023-05-19T21:09:27.019Z,97936.09
2023-05-19T21:12:16.351Z,97931.69
2023-05-19T21:15:06.086Z,97930.97
2023-05-19T21:17:55.033Z,97927.72
2023-05-19T21:20:43.908Z,97932.75
2023-05-19T21:23:32.774Z,97924.69
2023-05-19T21:26:22.958Z,97933.84
2023-05-19T21:29:12.092Z,97939.91
2023-05-19T21:32:01.148Z,97941.00
2023-05-19T21:34:50.190Z,97942.81
2023-05-19T21:37:38.995Z,97946.59
2023-05-19T21:40:27.824Z,97940.50
2023-05-19T21:43:18.279Z,97944.53
2023-05-19T21:46:07.170Z,97936.88
2023-05-19T21:48:56.172Z,97936.75
2023-05-19T21:51:44.991Z,97936.53
2023-05-19T21:54:33.762Z,97940.38
2023-05-19T21:57:22.503Z,97935.81
2023-05-19T22:00:14.885Z,97936.75
2023-05-19T22:03:03.880Z,97928.94
2023-05-19T22:05:53.839Z,97933.34
2023-05-19T22:08:42.912Z,97944.69
2023-05-19T22:11:31.731Z,97931.66
2023-05-19T22:14:20.559Z,97929.31
2023-05-19T22:17:10.788Z,97930.16
2023-05-19T22:19:59.640Z,97927.75
2023-05-19T22:22:48.449Z,97936.78
2023-05-19T22:25:37.151Z,97936.28
2023-05-19T22:28:27.130Z,97933.94
2023-05-19T22:31:16.277Z,97928.69
2023-05-19T22:34:06.512Z,97927.31
2023-05-19T22:36:55.332Z,97911.75
2023-05-19T22:39:44.117Z,97912.72
2023-05-19T22:42:33.435Z,97904.50
2023-05-19T22:45:22.627Z,97910.97
2023-05-19T22:48:11.545Z,97903.88
2023-05-19T22:51:01.748Z,97908.09
2023-05-19T22:53:50.464Z,97905.41
2023-05-19T22:56:39.230Z,97904.75
2023-05-19T22:59:28.114Z,97909.53
2023-05-19T23:02:16.872Z,97905.66
2023-05-19T23:05:08.017Z,97902.94
2023-05-19T23:07:58.118Z,97907.13
2023-05-19T23:10:46.973Z,97907.81
2023-05-19T23:13:35.704Z,97903.72
2023-05-19T23:16:24.686Z,97901.56
2023-05-19T23:19:13.493Z,97903.06
2023-05-19T23:22:02.394Z,97901.31
2023-05-19T23:24:52.509Z,97896.28
2023-05-19T23:27:41.276Z,97898.03
2023-05-19T23:30:30.427Z,97897.28
2023-05-19T23:33:19.202Z,97897.09
2023-05-19T23:36:10.025Z,97889.91
2023-05-19T23:38:58.953Z,97894.97
2023-05-19T23:41:49.632Z,97889.50
2023-05-19T23:44:38.406Z,97886.06
2023-05-19T23:47:27.657Z,97892.16
2023-05-19T23:50:16.691Z,97871.75
2023-05-19T23:53:05.593Z,97875.09
2023-05-19T23:55:54.975Z,97877.72
2023-05-19T23:58:46.459Z,97877.13
